sensor_id;sensor_type;location;lat;lon;timestamp;P1;durP1;ratioP1;P2;durP2;ratioP2
9767;SDS011;4923;52.520;13.494;2023-11-19T00:01:14;5.00;;;3.10;;
9767;SDS011;4923;52.520;13.494;2023-11-19T00:04:09;6.70;;;3.10;;
9767;SDS011;4923;52.520;13.494;2023-11-19T00:06:56;2.90;;;2.80;;
9767;SDS011;4923;52.520;13.494;2023-11-19T00:09:48;2.60;;;2.50;;
9767;SDS011;4923;52.520;13.494;2023-11-19T00:12:36;2.92;;;2.72;;
9767;SDS011;4923;52.520;13.494;2023-11-19T00:15:25;3.33;;;3.13;;
9767;SDS011;4923;52.520;13.494;2023-11-19T00:18:11;2.88;;;2.67;;
9767;SDS011;4923;52.520;13.494;2023-11-19T00:20:59;3.20;;;3.00;;
9767;SDS011;4923;52.520;13.494;2023-11-19T00:23:47;3.10;;;2.90;;
9767;SDS011;4923;52.520;13.494;2023-11-19T00:26:34;3.35;;;3.25;;
9767;SDS011;4923;52.520;13.494;2023-11-19T00:29:21;3.50;;;3.30;;
9767;SDS011;4923;52.520;13.494;2023-11-19T00:32:09;3.95;;;2.85;;
9767;SDS011;4923;52.520;13.494;2023-11-19T00:34:56;2.70;;;2.60;;
9767;SDS011;4923;52.520;13.494;2023-11-19T00:37:43;3.10;;;2.90;;
9767;SDS011;4923;52.520;13.494;2023-11-19T00:40:32;3.78;;;3.17;;
9767;SDS011;4923;52.520;13.494;2023-11-19T00:43:19;2.97;;;2.78;;
9767;SDS011;4923;52.520;13.494;2023-11-19T00:46:07;3.72;;;3.42;;
9767;SDS011;4923;52.520;13.494;2023-11-19T00:48:57;4.00;;;3.80;;
9767;SDS011;4923;52.520;13.494;2023-11-19T00:51:46;3.25;;;3.03;;
9767;SDS011;4923;52.520;13.494;2023-11-19T00:54:33;2.55;;;2.40;;
9767;SDS011;4923;52.520;13.494;2023-11-19T00:57:20;2.90;;;2.65;;
9767;SDS011;4923;52.520;13.494;2023-11-19T01:00:07;2.80;;;2.70;;
9767;SDS011;4923;52.520;13.494;2023-11-19T01:03:03;7.80;;;2.10;;
9767;SDS011;4923;52.520;13.494;2023-11-19T01:05:53;3.17;;;3.00;;
9767;SDS011;4923;52.520;13.494;2023-11-19T01:08:42;3.10;;;2.80;;
9767;SDS011;4923;52.520;13.494;2023-11-19T01:11:29;2.75;;;2.50;;
9767;SDS011;4923;52.520;13.494;2023-11-19T01:14:16;3.05;;;2.08;;
9767;SDS011;4923;52.520;13.494;2023-11-19T01:17:03;3.03;;;2.85;;
9767;SDS011;4923;52.520;13.494;2023-11-19T01:19:51;2.35;;;2.13;;
9767;SDS011;4923;52.520;13.494;2023-11-19T01:22:39;5.28;;;2.60;;
9767;SDS011;4923;52.520;13.494;2023-11-19T01:25:26;3.00;;;2.80;;
9767;SDS011;4923;52.520;13.494;2023-11-19T01:28:13;2.85;;;2.50;;
9767;SDS011;4923;52.520;13.494;2023-11-19T01:31:00;4.40;;;2.20;;
9767;SDS011;4923;52.520;13.494;2023-11-19T01:33:47;2.33;;;2.22;;
9767;SDS011;4923;52.520;13.494;2023-11-19T01:36:34;2.22;;;2.13;;
9767;SDS011;4923;52.520;13.494;2023-11-19T01:39:22;4.90;;;2.20;;
9767;SDS011;4923;52.520;13.494;2023-11-19T01:42:09;1.77;;;1.75;;
9767;SDS011;4923;52.520;13.494;2023-11-19T01:44:57;5.82;;;2.40;;
9767;SDS011;4923;52.520;13.494;2023-11-19T01:47:45;2.28;;;2.17;;
9767;SDS011;4923;52.520;13.494;2023-11-19T01:50:32;2.80;;;2.70;;
9767;SDS011;4923;52.520;13.494;2023-11-19T01:53:20;2.92;;;2.60;;
9767;SDS011;4923;52.520;13.494;2023-11-19T01:56:09;3.05;;;2.83;;
9767;SDS011;4923;52.520;13.494;2023-11-19T01:58:59;4.97;;;2.40;;
9767;SDS011;4923;52.520;13.494;2023-11-19T02:01:47;2.10;;;2.00;;
9767;SDS011;4923;52.520;13.494;2023-11-19T02:04:34;2.22;;;2.13;;
9767;SDS011;4923;52.520;13.494;2023-11-19T02:07:21;2.55;;;2.45;;
9767;SDS011;4923;52.520;13.494;2023-11-19T02:10:08;2.78;;;2.58;;
9767;SDS011;4923;52.520;13.494;2023-11-19T02:13:00;2.30;;;2.20;;
9767;SDS011;4923;52.520;13.494;2023-11-19T02:15:47;3.17;;;2.97;;
9767;SDS011;4923;52.520;13.494;2023-11-19T02:18:34;2.72;;;2.63;;
9767;SDS011;4923;52.520;13.494;2023-11-19T02:21:21;2.88;;;2.67;;
9767;SDS011;4923;52.520;13.494;2023-11-19T02:24:08;2.80;;;2.60;;
9767;SDS011;4923;52.520;13.494;2023-11-19T02:26:59;2.75;;;2.55;;
9767;SDS011;4923;52.520;13.494;2023-11-19T02:29:52;2.70;;;2.50;;
9767;SDS011;4923;52.520;13.494;2023-11-19T02:32:40;2.40;;;2.30;;
9767;SDS011;4923;52.520;13.494;2023-11-19T02:35:27;2.00;;;1.80;;
9767;SDS011;4923;52.520;13.494;2023-11-19T02:38:16;2.70;;;2.45;;
9767;SDS011;4923;52.520;13.494;2023-11-19T02:41:03;2.20;;;2.10;;
9767;SDS011;4923;52.520;13.494;2023-11-19T02:43:51;2.40;;;2.22;;
9767;SDS011;4923;52.520;13.494;2023-11-19T02:46:40;2.28;;;2.17;;
9767;SDS011;4923;52.520;13.494;2023-11-19T02:49:27;2.20;;;2.10;;
9767;SDS011;4923;52.520;13.494;2023-11-19T02:52:14;2.35;;;2.25;;
9767;SDS011;4923;52.520;13.494;2023-11-19T02:55:01;2.88;;;2.78;;
9767;SDS011;4923;52.520;13.494;2023-11-19T02:57:48;1.85;;;1.85;;
9767;SDS011;4923;52.520;13.494;2023-11-19T03:00:36;2.55;;;2.45;;
9767;SDS011;4923;52.520;13.494;2023-11-19T03:03:35;2.90;;;2.05;;
9767;SDS011;4923;52.520;13.494;2023-11-19T03:06:23;1.92;;;1.92;;
9767;SDS011;4923;52.520;13.494;2023-11-19T03:09:10;1.80;;;1.70;;
9767;SDS011;4923;52.520;13.494;2023-11-19T03:11:57;1.17;;;1.17;;
9767;SDS011;4923;52.520;13.494;2023-11-19T03:14:44;2.00;;;1.90;;
9767;SDS011;4923;52.520;13.494;2023-11-19T03:17:33;1.50;;;1.50;;
9767;SDS011;4923;52.520;13.494;2023-11-19T03:20:21;15.90;;;1.65;;
9767;SDS011;4923;52.520;13.494;2023-11-19T03:23:09;1.40;;;1.40;;
9767;SDS011;4923;52.520;13.494;2023-11-19T03:25:56;3.10;;;1.70;;
9767;SDS011;4923;52.520;13.494;2023-11-19T03:28:43;3.28;;;1.73;;
9767;SDS011;4923;52.520;13.494;2023-11-19T03:31:29;1.45;;;1.45;;
9767;SDS011;4923;52.520;13.494;2023-11-19T03:34:16;1.63;;;1.63;;
9767;SDS011;4923;52.520;13.494;2023-11-19T03:37:05;1.45;;;1.45;;
9767;SDS011;4923;52.520;13.494;2023-11-19T03:39:53;1.40;;;1.40;;
9767;SDS011;4923;52.520;13.494;2023-11-19T03:42:40;1.60;;;1.50;;
9767;SDS011;4923;52.520;13.494;2023-11-19T03:45:27;4.40;;;2.20;;
9767;SDS011;4923;52.520;13.494;2023-11-19T03:48:14;1.30;;;1.30;;
9767;SDS011;4923;52.520;13.494;2023-11-19T03:51:02;2.33;;;2.22;;
9767;SDS011;4923;52.520;13.494;2023-11-19T03:53:50;2.40;;;2.17;;
9767;SDS011;4923;52.520;13.494;2023-11-19T03:56:37;2.50;;;2.40;;
9767;SDS011;4923;52.520;13.494;2023-11-19T03:59:24;1.90;;;1.80;;
9767;SDS011;4923;52.520;13.494;2023-11-19T04:02:11;2.45;;;2.35;;
9767;SDS011;4923;52.520;13.494;2023-11-19T04:04:58;3.20;;;2.88;;
9767;SDS011;4923;52.520;13.494;2023-11-19T04:07:44;2.65;;;2.55;;
9767;SDS011;4923;52.520;13.494;2023-11-19T04:10:33;2.30;;;2.20;;
9767;SDS011;4923;52.520;13.494;2023-11-19T04:13:19;4.57;;;2.85;;
9767;SDS011;4923;52.520;13.494;2023-11-19T04:16:07;3.40;;;3.20;;
9767;SDS011;4923;52.520;13.494;2023-11-19T04:18:54;2.40;;;2.30;;
9767;SDS011;4923;52.520;13.494;2023-11-19T04:21:41;2.90;;;2.65;;
9767;SDS011;4923;52.520;13.494;2023-11-19T04:24:28;3.28;;;2.97;;
9767;SDS011;4923;52.520;13.494;2023-11-19T04:27:17;2.95;;;2.65;;
9767;SDS011;4923;52.520;13.494;2023-11-19T04:30:04;3.60;;;3.40;;
9767;SDS011;4923;52.520;13.494;2023-11-19T04:32:56;3.85;;;3.53;;
9767;SDS011;4923;52.520;13.494;2023-11-19T04:35:42;3.92;;;3.63;;
9767;SDS011;4923;52.520;13.494;2023-11-19T04:38:29;3.03;;;2.83;;
9767;SDS011;4923;52.520;13.494;2023-11-19T04:41:16;4.90;;;3.30;;
9767;SDS011;4923;52.520;13.494;2023-11-19T04:44:04;3.05;;;2.85;;
9767;SDS011;4923;52.520;13.494;2023-11-19T04:46:51;3.80;;;3.50;;
9767;SDS011;4923;52.520;13.494;2023-11-19T04:49:39;3.10;;;2.90;;
9767;SDS011;4923;52.520;13.494;2023-11-19T04:52:28;3.45;;;3.15;;
9767;SDS011;4923;52.520;13.494;2023-11-19T04:55:15;4.53;;;3.50;;
9767;SDS011;4923;52.520;13.494;2023-11-19T04:58:03;3.45;;;3.25;;
9767;SDS011;4923;52.520;13.494;2023-11-19T05:00:51;3.83;;;3.53;;
9767;SDS011;4923;52.520;13.494;2023-11-19T05:03:38;3.83;;;3.53;;
9767;SDS011;4923;52.520;13.494;2023-11-19T05:06:26;3.00;;;2.85;;
9767;SDS011;4923;52.520;13.494;2023-11-19T05:09:14;3.45;;;3.25;;
9767;SDS011;4923;52.520;13.494;2023-11-19T05:12:01;3.20;;;3.00;;
9767;SDS011;4923;52.520;13.494;2023-11-19T05:14:48;3.33;;;3.22;;
9767;SDS011;4923;52.520;13.494;2023-11-19T05:17:37;6.05;;;4.13;;
9767;SDS011;4923;52.520;13.494;2023-11-19T05:20:24;3.65;;;3.42;;
9767;SDS011;4923;52.520;13.494;2023-11-19T05:23:11;3.97;;;3.60;;
9767;SDS011;4923;52.520;13.494;2023-11-19T05:25:58;3.47;;;3.28;;
9767;SDS011;4923;52.520;13.494;2023-11-19T05:28:44;3.50;;;3.30;;
9767;SDS011;4923;52.520;13.494;2023-11-19T05:31:31;3.50;;;3.20;;
9767;SDS011;4923;52.520;13.494;2023-11-19T05:34:20;4.40;;;4.10;;
9767;SDS011;4923;52.520;13.494;2023-11-19T05:37:07;4.45;;;4.10;;
9767;SDS011;4923;52.520;13.494;2023-11-19T05:39:56;3.35;;;3.20;;
9767;SDS011;4923;52.520;13.494;2023-11-19T05:42:45;3.70;;;3.50;;
9767;SDS011;4923;52.520;13.494;2023-11-19T05:45:32;4.45;;;3.42;;
9767;SDS011;4923;52.520;13.494;2023-11-19T05:48:19;3.33;;;3.20;;
9767;SDS011;4923;52.520;13.494;2023-11-19T05:51:07;3.25;;;3.15;;
9767;SDS011;4923;52.520;13.494;2023-11-19T05:53:54;3.88;;;3.67;;
9767;SDS011;4923;52.520;13.494;2023-11-19T05:56:46;3.00;;;2.80;;
9767;SDS011;4923;52.520;13.494;2023-11-19T05:59:34;3.67;;;3.40;;
9767;SDS011;4923;52.520;13.494;2023-11-19T06:02:21;3.15;;;3.05;;
9767;SDS011;4923;52.520;13.494;2023-11-19T06:05:08;3.15;;;3.00;;
9767;SDS011;4923;52.520;13.494;2023-11-19T06:07:56;3.08;;;2.88;;
9767;SDS011;4923;52.520;13.494;2023-11-19T06:10:44;3.38;;;3.17;;
9767;SDS011;4923;52.520;13.494;2023-11-19T06:13:32;4.43;;;3.05;;
9767;SDS011;4923;52.520;13.494;2023-11-19T06:16:19;3.15;;;2.95;;
9767;SDS011;4923;52.520;13.494;2023-11-19T06:19:07;3.22;;;3.13;;
9767;SDS011;4923;52.520;13.494;2023-11-19T06:21:55;3.13;;;3.03;;
9767;SDS011;4923;52.520;13.494;2023-11-19T06:24:43;2.50;;;2.40;;
9767;SDS011;4923;52.520;13.494;2023-11-19T06:27:30;3.47;;;3.28;;
9767;SDS011;4923;52.520;13.494;2023-11-19T06:30:17;3.00;;;2.90;;
9767;SDS011;4923;52.520;13.494;2023-11-19T06:33:05;3.17;;;2.97;;
9767;SDS011;4923;52.520;13.494;2023-11-19T06:35:52;2.92;;;2.83;;
9767;SDS011;4923;52.520;13.494;2023-11-19T06:38:39;4.80;;;2.75;;
9767;SDS011;4923;52.520;13.494;2023-11-19T06:41:28;2.67;;;2.60;;
9767;SDS011;4923;52.520;13.494;2023-11-19T06:44:15;3.50;;;3.28;;
9767;SDS011;4923;52.520;13.494;2023-11-19T06:47:02;2.22;;;2.20;;
9767;SDS011;4923;52.520;13.494;2023-11-19T06:49:49;2.35;;;2.28;;
9767;SDS011;4923;52.520;13.494;2023-11-19T06:52:36;3.15;;;2.97;;
9767;SDS011;4923;52.520;13.494;2023-11-19T06:55:23;2.10;;;2.00;;
9767;SDS011;4923;52.520;13.494;2023-11-19T06:58:12;2.90;;;2.70;;
9767;SDS011;4923;52.520;13.494;2023-11-19T07:00:58;2.58;;;2.50;;
9767;SDS011;4923;52.520;13.494;2023-11-19T07:03:45;2.33;;;2.33;;
9767;SDS011;4923;52.520;13.494;2023-11-19T07:06:32;2.20;;;2.10;;
9767;SDS011;4923;52.520;13.494;2023-11-19T07:09:19;2.35;;;2.25;;
9767;SDS011;4923;52.520;13.494;2023-11-19T07:12:06;5.32;;;2.67;;
9767;SDS011;4923;52.520;13.494;2023-11-19T07:14:54;2.50;;;2.25;;
9767;SDS011;4923;52.520;13.494;2023-11-19T07:17:41;2.25;;;2.15;;
9767;SDS011;4923;52.520;13.494;2023-11-19T07:20:29;2.28;;;2.17;;
9767;SDS011;4923;52.520;13.494;2023-11-19T07:23:16;2.60;;;2.50;;
9767;SDS011;4923;52.520;13.494;2023-11-19T07:26:04;2.83;;;2.72;;
9767;SDS011;4923;52.520;13.494;2023-11-19T07:28:53;2.30;;;2.30;;
9767;SDS011;4923;52.520;13.494;2023-11-19T07:31:42;1.95;;;1.95;;
9767;SDS011;4923;52.520;13.494;2023-11-19T07:34:29;1.80;;;1.80;;
9767;SDS011;4923;52.520;13.494;2023-11-19T07:37:16;1.58;;;1.58;;
9767;SDS011;4923;52.520;13.494;2023-11-19T07:40:03;2.08;;;1.98;;
9767;SDS011;4923;52.520;13.494;2023-11-19T07:42:50;1.90;;;1.80;;
9767;SDS011;4923;52.520;13.494;2023-11-19T07:45:37;2.47;;;2.30;;
9767;SDS011;4923;52.520;13.494;2023-11-19T07:48:26;2.03;;;2.03;;
9767;SDS011;4923;52.520;13.494;2023-11-19T07:51:13;1.77;;;1.77;;
9767;SDS011;4923;52.520;13.494;2023-11-19T07:54:00;2.30;;;2.20;;
9767;SDS011;4923;52.520;13.494;2023-11-19T07:56:47;2.28;;;2.17;;
9767;SDS011;4923;52.520;13.494;2023-11-19T07:59:35;2.83;;;2.72;;
9767;SDS011;4923;52.520;13.494;2023-11-19T08:02:21;3.05;;;2.88;;
9767;SDS011;4923;52.520;13.494;2023-11-19T08:05:10;3.55;;;2.60;;
9767;SDS011;4923;52.520;13.494;2023-11-19T08:07:57;2.55;;;2.35;;
9767;SDS011;4923;52.520;13.494;2023-11-19T08:10:44;1.92;;;1.83;;
9767;SDS011;4923;52.520;13.494;2023-11-19T08:13:33;2.72;;;2.53;;
9767;SDS011;4923;52.520;13.494;2023-11-19T08:16:19;4.20;;;4.00;;
9767;SDS011;4923;52.520;13.494;2023-11-19T08:19:06;2.72;;;2.60;;
9767;SDS011;4923;52.520;13.494;2023-11-19T08:21:55;2.70;;;2.60;;
9767;SDS011;4923;52.520;13.494;2023-11-19T08:24:42;2.40;;;2.30;;
9767;SDS011;4923;52.520;13.494;2023-11-19T08:27:29;5.82;;;2.67;;
9767;SDS011;4923;52.520;13.494;2023-11-19T08:30:15;2.63;;;2.47;;
9767;SDS011;4923;52.520;13.494;2023-11-19T08:33:02;2.03;;;2.03;;
9767;SDS011;4923;52.520;13.494;2023-11-19T08:35:51;2.88;;;2.75;;
9767;SDS011;4923;52.520;13.494;2023-11-19T08:38:39;2.88;;;2.78;;
9767;SDS011;4923;52.520;13.494;2023-11-19T08:41:27;2.33;;;2.17;;
9767;SDS011;4923;52.520;13.494;2023-11-19T08:44:14;2.58;;;2.55;;
9767;SDS011;4923;52.520;13.494;2023-11-19T08:47:01;2.67;;;2.58;;
9767;SDS011;4923;52.520;13.494;2023-11-19T08:49:48;2.97;;;2.13;;
9767;SDS011;4923;52.520;13.494;2023-11-19T08:52:37;2.13;;;2.03;;
9767;SDS011;4923;52.520;13.494;2023-11-19T08:55:25;2.40;;;2.20;;
9767;SDS011;4923;52.520;13.494;2023-11-19T08:58:12;2.30;;;2.20;;
9767;SDS011;4923;52.520;13.494;2023-11-19T09:00:59;3.50;;;1.98;;
9767;SDS011;4923;52.520;13.494;2023-11-19T09:03:46;2.50;;;2.30;;
9767;SDS011;4923;52.520;13.494;2023-11-19T09:06:33;2.78;;;2.55;;
9767;SDS011;4923;52.520;13.494;2023-11-19T09:09:21;6.28;;;2.70;;
9767;SDS011;4923;52.520;13.494;2023-11-19T09:12:10;2.40;;;2.30;;
9767;SDS011;4923;52.520;13.494;2023-11-19T09:14:56;2.05;;;2.00;;
9767;SDS011;4923;52.520;13.494;2023-11-19T09:17:43;2.28;;;2.22;;
9767;SDS011;4923;52.520;13.494;2023-11-19T09:20:30;2.05;;;1.98;;
9767;SDS011;4923;52.520;13.494;2023-11-19T09:23:23;3.42;;;3.20;;
9767;SDS011;4923;52.520;13.494;2023-11-19T09:26:10;11.18;;;7.30;;
9767;SDS011;4923;52.520;13.494;2023-11-19T09:28:59;3.17;;;2.97;;
9767;SDS011;4923;52.520;13.494;2023-11-19T09:31:46;2.42;;;2.22;;
9767;SDS011;4923;52.520;13.494;2023-11-19T09:34:33;2.78;;;2.67;;
9767;SDS011;4923;52.520;13.494;2023-11-19T09:37:19;2.15;;;1.50;;
9767;SDS011;4923;52.520;13.494;2023-11-19T09:40:07;1.60;;;1.60;;
9767;SDS011;4923;52.520;13.494;2023-11-19T09:42:54;1.95;;;1.85;;
9767;SDS011;4923;52.520;13.494;2023-11-19T09:45:45;2.95;;;1.52;;
9767;SDS011;4923;52.520;13.494;2023-11-19T09:48:35;2.03;;;1.92;;
9767;SDS011;4923;52.520;13.494;2023-11-19T09:51:23;2.40;;;2.30;;
9767;SDS011;4923;52.520;13.494;2023-11-19T09:54:10;2.05;;;1.95;;
9767;SDS011;4923;52.520;13.494;2023-11-19T09:56:59;1.58;;;1.52;;
9767;SDS011;4923;52.520;13.494;2023-11-19T09:59:49;1.52;;;1.42;;
9767;SDS011;4923;52.520;13.494;2023-11-19T10:02:39;1.65;;;1.65;;
9767;SDS011;4923;52.520;13.494;2023-11-19T10:05:27;1.50;;;1.23;;
9767;SDS011;4923;52.520;13.494;2023-11-19T10:08:13;1.55;;;1.45;;
9767;SDS011;4923;52.520;13.494;2023-11-19T10:11:01;1.35;;;1.35;;
9767;SDS011;4923;52.520;13.494;2023-11-19T10:13:48;3.25;;;1.20;;
9767;SDS011;4923;52.520;13.494;2023-11-19T10:16:36;1.10;;;1.10;;
9767;SDS011;4923;52.520;13.494;2023-11-19T10:19:25;1.45;;;1.25;;
9767;SDS011;4923;52.520;13.494;2023-11-19T10:22:13;5.07;;;1.58;;
9767;SDS011;4923;52.520;13.494;2023-11-19T10:25:02;1.55;;;1.30;;
9767;SDS011;4923;52.520;13.494;2023-11-19T10:27:49;13.23;;;1.47;;
9767;SDS011;4923;52.520;13.494;2023-11-19T10:30:36;2.58;;;1.30;;
9767;SDS011;4923;52.520;13.494;2023-11-19T10:33:22;2.45;;;1.38;;
9767;SDS011;4923;52.520;13.494;2023-11-19T10:36:11;1.77;;;1.30;;
9767;SDS011;4923;52.520;13.494;2023-11-19T10:38:59;1.30;;;1.00;;
9767;SDS011;4923;52.520;13.494;2023-11-19T10:41:46;2.17;;;1.10;;
9767;SDS011;4923;52.520;13.494;2023-11-19T10:44:32;1.60;;;1.50;;
9767;SDS011;4923;52.520;13.494;2023-11-19T10:47:22;4.30;;;1.40;;
9767;SDS011;4923;52.520;13.494;2023-11-19T10:50:09;1.95;;;1.33;;
9767;SDS011;4923;52.520;13.494;2023-11-19T10:52:58;3.15;;;1.30;;
9767;SDS011;4923;52.520;13.494;2023-11-19T10:55:46;3.13;;;1.20;;
9767;SDS011;4923;52.520;13.494;2023-11-19T10:58:34;4.97;;;2.40;;
9767;SDS011;4923;52.520;13.494;2023-11-19T11:01:23;3.80;;;1.47;;
9767;SDS011;4923;52.520;13.494;2023-11-19T11:04:13;1.73;;;0.80;;
9767;SDS011;4923;52.520;13.494;2023-11-19T11:07:01;3.60;;;1.17;;
9767;SDS011;4923;52.520;13.494;2023-11-19T11:09:50;9.53;;;1.30;;
9767;SDS011;4923;52.520;13.494;2023-11-19T11:12:38;6.87;;;1.60;;
9767;SDS011;4923;52.520;13.494;2023-11-19T11:15:27;2.93;;;1.07;;
9767;SDS011;4923;52.520;13.494;2023-11-19T11:18:16;4.90;;;1.90;;
9767;SDS011;4923;52.520;13.494;2023-11-19T11:21:04;1.83;;;1.10;;
9767;SDS011;4923;52.520;13.494;2023-11-19T11:23:58;2.63;;;1.30;;
9767;SDS011;4923;52.520;13.494;2023-11-19T11:30:35;3.87;;;1.17;;
9767;SDS011;4923;52.520;13.494;2023-11-19T11:33:35;5.30;;;1.30;;
9767;SDS011;4923;52.520;13.494;2023-11-19T11:36:30;5.90;;;2.03;;
9767;SDS011;4923;52.520;13.494;2023-11-19T11:39:22;4.43;;;1.23;;
9767;SDS011;4923;52.520;13.494;2023-11-19T11:45:18;8.43;;;1.37;;
9767;SDS011;4923;52.520;13.494;2023-11-19T11:48:09;4.30;;;1.63;;
9767;SDS011;4923;52.520;13.494;2023-11-19T11:51:01;9.80;;;2.10;;
9767;SDS011;4923;52.520;13.494;2023-11-19T11:53:48;8.23;;;1.47;;
9767;SDS011;4923;52.520;13.494;2023-11-19T11:56:36;15.20;;;2.50;;
9767;SDS011;4923;52.520;13.494;2023-11-19T11:59:24;6.83;;;2.30;;
9767;SDS011;4923;52.520;13.494;2023-11-19T12:02:13;8.53;;;1.77;;
9767;SDS011;4923;52.520;13.494;2023-11-19T12:05:01;3.67;;;1.53;;
9767;SDS011;4923;52.520;13.494;2023-11-19T12:07:54;7.73;;;2.70;;
9767;SDS011;4923;52.520;13.494;2023-11-19T12:10:44;10.70;;;2.33;;
9767;SDS011;4923;52.520;13.494;2023-11-19T12:13:45;10.03;;;2.73;;
9767;SDS011;4923;52.520;13.494;2023-11-19T12:16:34;10.63;;;2.70;;
9767;SDS011;4923;52.520;13.494;2023-11-19T12:19:24;14.30;;;2.30;;
9767;SDS011;4923;52.520;13.494;2023-11-19T12:22:12;4.97;;;1.93;;
9767;SDS011;4923;52.520;13.494;2023-11-19T12:24:59;13.87;;;2.20;;
9767;SDS011;4923;52.520;13.494;2023-11-19T12:27:47;10.03;;;2.30;;
9767;SDS011;4923;52.520;13.494;2023-11-19T12:30:34;11.80;;;1.83;;
9767;SDS011;4923;52.520;13.494;2023-11-19T12:33:21;15.50;;;2.93;;
9767;SDS011;4923;52.520;13.494;2023-11-19T12:36:10;12.23;;;3.43;;
9767;SDS011;4923;52.520;13.494;2023-11-19T12:38:57;6.37;;;2.20;;
9767;SDS011;4923;52.520;13.494;2023-11-19T12:41:51;15.23;;;6.17;;
9767;SDS011;4923;52.520;13.494;2023-11-19T12:44:38;11.40;;;3.20;;
9767;SDS011;4923;52.520;13.494;2023-11-19T12:47:25;16.97;;;4.47;;
9767;SDS011;4923;52.520;13.494;2023-11-19T12:50:12;17.93;;;3.10;;
9767;SDS011;4923;52.520;13.494;2023-11-19T12:53:00;20.50;;;7.30;;
9767;SDS011;4923;52.520;13.494;2023-11-19T12:55:47;17.53;;;5.83;;
9767;SDS011;4923;52.520;13.494;2023-11-19T12:58:34;19.80;;;7.47;;
9767;SDS011;4923;52.520;13.494;2023-11-19T13:01:22;9.63;;;4.17;;
9767;SDS011;4923;52.520;13.494;2023-11-19T13:04:15;11.63;;;2.53;;
9767;SDS011;4923;52.520;13.494;2023-11-19T13:07:03;31.63;;;9.47;;
9767;SDS011;4923;52.520;13.494;2023-11-19T13:09:51;9.80;;;2.67;;
9767;SDS011;4923;52.520;13.494;2023-11-19T13:12:59;12.30;;;2.73;;
9767;SDS011;4923;52.520;13.494;2023-11-19T13:15:50;11.10;;;3.37;;
9767;SDS011;4923;52.520;13.494;2023-11-19T13:18:37;14.60;;;2.87;;
9767;SDS011;4923;52.520;13.494;2023-11-19T13:21:23;12.47;;;2.60;;
9767;SDS011;4923;52.520;13.494;2023-11-19T13:24:10;19.10;;;2.33;;
9767;SDS011;4923;52.520;13.494;2023-11-19T13:26:58;14.23;;;2.60;;
9767;SDS011;4923;52.520;13.494;2023-11-19T13:29:45;9.40;;;1.90;;
9767;SDS011;4923;52.520;13.494;2023-11-19T13:32:32;19.17;;;3.00;;
9767;SDS011;4923;52.520;13.494;2023-11-19T13:35:19;20.10;;;2.43;;
9767;SDS011;4923;52.520;13.494;2023-11-19T13:38:06;14.03;;;2.60;;
9767;SDS011;4923;52.520;13.494;2023-11-19T13:40:54;17.30;;;2.37;;
9767;SDS011;4923;52.520;13.494;2023-11-19T13:43:42;16.50;;;2.57;;
9767;SDS011;4923;52.520;13.494;2023-11-19T13:46:29;13.20;;;2.33;;
9767;SDS011;4923;52.520;13.494;2023-11-19T13:49:16;18.27;;;2.90;;
9767;SDS011;4923;52.520;13.494;2023-11-19T13:52:05;14.00;;;2.70;;
9767;SDS011;4923;52.520;13.494;2023-11-19T13:54:52;6.37;;;2.17;;
9767;SDS011;4923;52.520;13.494;2023-11-19T13:57:39;19.07;;;2.93;;
9767;SDS011;4923;52.520;13.494;2023-11-19T14:00:28;15.43;;;2.13;;
9767;SDS011;4923;52.520;13.494;2023-11-19T14:03:15;18.53;;;3.33;;
9767;SDS011;4923;52.520;13.494;2023-11-19T14:06:02;8.40;;;1.80;;
9767;SDS011;4923;52.520;13.494;2023-11-19T14:08:49;18.13;;;3.97;;
9767;SDS011;4923;52.520;13.494;2023-11-19T14:11:36;18.57;;;3.93;;
9767;SDS011;4923;52.520;13.494;2023-11-19T14:14:23;13.27;;;3.00;;
9767;SDS011;4923;52.520;13.494;2023-11-19T14:17:11;15.10;;;2.70;;
9767;SDS011;4923;52.520;13.494;2023-11-19T14:19:58;14.73;;;3.23;;
9767;SDS011;4923;52.520;13.494;2023-11-19T14:22:45;14.60;;;3.27;;
9767;SDS011;4923;52.520;13.494;2023-11-19T14:25:34;16.80;;;2.50;;
9767;SDS011;4923;52.520;13.494;2023-11-19T14:28:21;11.03;;;3.60;;
9767;SDS011;4923;52.520;13.494;2023-11-19T14:31:08;17.57;;;3.70;;
9767;SDS011;4923;52.520;13.494;2023-11-19T14:33:56;14.43;;;3.13;;
9767;SDS011;4923;52.520;13.494;2023-11-19T14:36:43;22.07;;;5.37;;
9767;SDS011;4923;52.520;13.494;2023-11-19T14:39:29;19.47;;;3.70;;
9767;SDS011;4923;52.520;13.494;2023-11-19T14:42:17;24.80;;;3.97;;
9767;SDS011;4923;52.520;13.494;2023-11-19T14:45:04;29.07;;;3.90;;
9767;SDS011;4923;52.520;13.494;2023-11-19T14:47:53;16.43;;;3.77;;
9767;SDS011;4923;52.520;13.494;2023-11-19T14:50:41;19.52;;;3.80;;
9767;SDS011;4923;52.520;13.494;2023-11-19T14:53:29;16.97;;;3.37;;
9767;SDS011;4923;52.520;13.494;2023-11-19T14:56:16;21.13;;;3.83;;
9767;SDS011;4923;52.520;13.494;2023-11-19T14:59:03;21.33;;;3.28;;
9767;SDS011;4923;52.520;13.494;2023-11-19T15:01:50;23.10;;;3.30;;
9767;SDS011;4923;52.520;13.494;2023-11-19T15:04:37;27.67;;;5.30;;
9767;SDS011;4923;52.520;13.494;2023-11-19T15:07:26;27.37;;;4.20;;
9767;SDS011;4923;52.520;13.494;2023-11-19T15:10:13;13.48;;;3.30;;
9767;SDS011;4923;52.520;13.494;2023-11-19T15:13:00;14.77;;;3.47;;
9767;SDS011;4923;52.520;13.494;2023-11-19T15:15:47;10.88;;;2.65;;
9767;SDS011;4923;52.520;13.494;2023-11-19T15:18:34;26.83;;;3.70;;
9767;SDS011;4923;52.520;13.494;2023-11-19T15:21:21;34.33;;;3.80;;
9767;SDS011;4923;52.520;13.494;2023-11-19T15:24:09;14.57;;;3.10;;
9767;SDS011;4923;52.520;13.494;2023-11-19T15:26:56;16.13;;;3.00;;
9767;SDS011;4923;52.520;13.494;2023-11-19T15:29:43;13.52;;;3.45;;
9767;SDS011;4923;52.520;13.494;2023-11-19T15:32:30;14.90;;;3.00;;
9767;SDS011;4923;52.520;13.494;2023-11-19T15:35:17;17.15;;;2.95;;
9767;SDS011;4923;52.520;13.494;2023-11-19T15:38:04;9.93;;;2.88;;
9767;SDS011;4923;52.520;13.494;2023-11-19T15:40:55;18.20;;;3.42;;
9767;SDS011;4923;52.520;13.494;2023-11-19T15:43:42;14.27;;;3.40;;
9767;SDS011;4923;52.520;13.494;2023-11-19T15:46:29;11.68;;;2.85;;
9767;SDS011;4923;52.520;13.494;2023-11-19T15:49:16;21.60;;;3.88;;
9767;SDS011;4923;52.520;13.494;2023-11-19T15:52:03;35.90;;;5.00;;
9767;SDS011;4923;52.520;13.494;2023-11-19T15:54:51;20.50;;;4.83;;
9767;SDS011;4923;52.520;13.494;2023-11-19T15:57:39;14.90;;;3.33;;
9767;SDS011;4923;52.520;13.494;2023-11-19T16:00:27;13.40;;;3.45;;
9767;SDS011;4923;52.520;13.494;2023-11-19T16:03:14;15.70;;;3.20;;
9767;SDS011;4923;52.520;13.494;2023-11-19T16:06:01;28.07;;;4.37;;
9767;SDS011;4923;52.520;13.494;2023-11-19T16:08:48;22.80;;;3.07;;
9767;SDS011;4923;52.520;13.494;2023-11-19T16:11:36;21.13;;;4.15;;
9767;SDS011;4923;52.520;13.494;2023-11-19T16:14:29;11.50;;;2.90;;
9767;SDS011;4923;52.520;13.494;2023-11-19T16:17:15;17.40;;;3.27;;
9767;SDS011;4923;52.520;13.494;2023-11-19T16:20:02;22.92;;;4.60;;
9767;SDS011;4923;52.520;13.494;2023-11-19T16:22:52;19.02;;;3.38;;
9767;SDS011;4923;52.520;13.494;2023-11-19T16:25:38;22.77;;;4.03;;
9767;SDS011;4923;52.520;13.494;2023-11-19T16:28:25;23.85;;;4.40;;
9767;SDS011;4923;52.520;13.494;2023-11-19T16:31:13;16.80;;;3.73;;
9767;SDS011;4923;52.520;13.494;2023-11-19T16:34:00;23.98;;;4.07;;
9767;SDS011;4923;52.520;13.494;2023-11-19T16:36:47;17.17;;;3.13;;
9767;SDS011;4923;52.520;13.494;2023-11-19T16:39:35;16.65;;;4.15;;
9767;SDS011;4923;52.520;13.494;2023-11-19T16:42:22;25.48;;;5.30;;
9767;SDS011;4923;52.520;13.494;2023-11-19T16:45:08;16.02;;;3.90;;
9767;SDS011;4923;52.520;13.494;2023-11-19T16:47:57;13.20;;;3.90;;
9767;SDS011;4923;52.520;13.494;2023-11-19T16:50:44;23.55;;;4.75;;
9767;SDS011;4923;52.520;13.494;2023-11-19T16:53:33;18.90;;;4.55;;
9767;SDS011;4923;52.520;13.494;2023-11-19T16:56:19;18.45;;;4.57;;
9767;SDS011;4923;52.520;13.494;2023-11-19T16:59:07;19.80;;;4.60;;
9767;SDS011;4923;52.520;13.494;2023-11-19T17:01:53;24.80;;;5.18;;
9767;SDS011;4923;52.520;13.494;2023-11-19T17:04:42;15.70;;;3.50;;
9767;SDS011;4923;52.520;13.494;2023-11-19T17:07:28;22.33;;;5.35;;
9767;SDS011;4923;52.520;13.494;2023-11-19T17:10:16;12.77;;;3.30;;